createdAt,value
2023-03-06T00:00:57.383Z,5.01
2023-03-06T00:04:02.010Z,5.02
2023-03-06T00:07:04.705Z,4.98
2023-03-06T00:10:08.169Z,4.97
2023-03-06T00:13:14.801Z,4.94
2023-03-06T00:16:17.497Z,4.94
2023-03-06T00:19:21.538Z,4.93
2023-03-06T00:22:24.370Z,4.92
2023-03-06T00:25:29.890Z,4.91
2023-03-06T00:31:52.295Z,4.87
2023-03-06T00:34:58.941Z,4.87
2023-03-06T00:38:04.615Z,4.85
2023-03-06T00:41:09.105Z,4.83
2023-03-06T00:44:11.795Z,4.83
2023-03-06T00:47:17.143Z,4.83
2023-03-06T00:50:21.376Z,4.81
2023-03-06T00:53:37.387Z,4.79
2023-03-06T00:56:46.216Z,4.76
2023-03-06T00:59:49.264Z,4.75
2023-03-06T01:02:58.121Z,4.68
2023-03-06T01:06:02.587Z,4.69
2023-03-06T01:09:08.347Z,4.64
2023-03-06T01:12:11.936Z,4.64
2023-03-06T01:15:17.626Z,4.62
2023-03-06T01:18:20.294Z,4.64
2023-03-06T01:21:27.619Z,4.64
2023-03-06T01:24:30.349Z,4.58
2023-03-06T01:27:35.824Z,4.54
2023-03-06T01:30:39.250Z,4.63
2023-03-06T01:33:41.951Z,4.59
2023-03-06T01:36:50.122Z,4.58
2023-03-06T01:39:52.778Z,4.39
2023-03-06T01:42:55.435Z,4.55
2023-03-06T01:46:35.130Z,4.52
2023-03-06T01:49:40.584Z,4.54
2023-03-06T01:52:50.472Z,4.49
2023-03-06T01:56:08.386Z,4.50
2023-03-06T01:59:11.659Z,4.49
2023-03-06T02:02:16.325Z,4.50
2023-03-06T02:05:22.269Z,4.50
2023-03-06T02:08:28.105Z,4.45
2023-03-06T02:11:30.876Z,4.52
2023-03-06T02:14:34.167Z,4.52
2023-03-06T02:17:37.691Z,4.50
2023-03-06T02:20:47.616Z,4.49
2023-03-06T02:24:05.084Z,4.48
2023-03-06T02:27:12.393Z,4.42
2023-03-06T02:30:17.662Z,4.43
2023-03-06T02:33:29.456Z,4.40
2023-03-06T02:36:38.541Z,4.39
2023-03-06T02:39:45.142Z,4.42
2023-03-06T02:42:51.019Z,4.40
2023-03-06T02:45:54.922Z,4.44
2023-03-06T02:48:58.328Z,4.43
2023-03-06T02:52:00.999Z,4.42
2023-03-06T02:55:04.140Z,4.44
2023-03-06T02:58:08.430Z,4.44
2023-03-06T03:01:11.843Z,4.39
2023-03-06T03:04:14.646Z,4.39
2023-03-06T03:07:18.311Z,4.37
2023-03-06T03:10:24.018Z,4.36
2023-03-06T03:13:45.092Z,4.37
2023-03-06T03:16:47.817Z,4.37
2023-03-06T03:19:52.741Z,4.34
2023-03-06T03:22:56.591Z,4.37
2023-03-06T03:26:07.403Z,4.39
2023-03-06T03:29:11.514Z,4.34
2023-03-06T03:32:14.355Z,4.32
2023-03-06T03:35:17.013Z,4.31
2023-03-06T03:38:19.939Z,4.34
2023-03-06T03:41:24.964Z,4.30
2023-03-06T03:44:29.731Z,4.33
2023-03-06T03:47:32.402Z,4.28
2023-03-06T03:50:35.436Z,4.29
2023-03-06T03:53:41.288Z,4.31
2023-03-06T03:56:45.504Z,4.32
2023-03-06T03:59:49.753Z,4.31
2023-03-06T04:02:52.886Z,4.31
2023-03-06T04:05:58.868Z,4.33
2023-03-06T04:09:01.999Z,4.26
2023-03-06T04:12:04.948Z,4.32
2023-03-06T04:15:13.188Z,4.26
2023-03-06T04:18:16.618Z,4.30
2023-03-06T04:21:19.356Z,4.32
2023-03-06T04:24:31.323Z,4.35
2023-03-06T04:27:34.027Z,4.39
2023-03-06T04:30:38.500Z,4.33
2023-03-06T04:33:46.053Z,4.45
2023-03-06T04:36:54.840Z,4.48
2023-03-06T04:39:58.292Z,4.45
2023-03-06T04:43:02.203Z,4.42
2023-03-06T04:46:06.720Z,4.42
2023-03-06T04:49:12.693Z,4.43
2023-03-06T04:52:17.575Z,4.41
2023-03-06T04:55:23.693Z,4.37
2023-03-06T04:58:27.837Z,4.39
2023-03-06T05:01:32.015Z,4.40
2023-03-06T05:04:36.345Z,4.41
2023-03-06T05:07:39.132Z,4.41
2023-03-06T05:10:41.870Z,4.38
2023-03-06T05:13:44.665Z,4.40
2023-03-06T05:16:48.823Z,4.38
2023-03-06T05:20:00.770Z,4.35
2023-03-06T05:23:03.984Z,4.35
2023-03-06T05:26:10.878Z,4.30
2023-03-06T05:29:15.392Z,4.26
2023-03-06T05:32:22.493Z,4.29
2023-03-06T05:35:25.665Z,4.36
2023-03-06T05:38:36.347Z,4.38
2023-03-06T05:41:46.579Z,4.42
2023-03-06T05:44:51.407Z,4.38
2023-03-06T05:47:55.751Z,4.38
2023-03-06T05:51:03.264Z,4.45
2023-03-06T05:54:08.824Z,4.42
2023-03-06T05:57:11.519Z,4.48
2023-03-06T06:00:15.833Z,4.49
2023-03-06T06:03:23.393Z,4.55
2023-03-06T06:06:26.271Z,4.54
2023-03-06T06:09:29.324Z,4.59
2023-03-06T06:12:32.102Z,4.57
2023-03-06T06:15:35.094Z,4.70
2023-03-06T06:18:41.449Z,4.78
2023-03-06T06:21:44.300Z,4.79
2023-03-06T06:24:47.028Z,4.82
2023-03-06T06:27:49.693Z,4.82
2023-03-06T06:30:52.618Z,4.82
2023-03-06T06:33:56.793Z,4.78
2023-03-06T06:36:59.605Z,4.77
2023-03-06T06:40:02.377Z,4.79
2023-03-06T06:43:05.193Z,4.76
2023-03-06T06:46:36.453Z,4.88
2023-03-06T06:49:32.137Z,4.89
2023-03-06T06:52:35.233Z,4.77
2023-03-06T06:55:38.917Z,4.73
2023-03-06T06:58:48.303Z,4.85
2023-03-06T07:01:52.147Z,4.83
2023-03-06T07:05:04.064Z,4.97
2023-03-06T07:08:15.028Z,4.88
2023-03-06T07:11:19.343Z,4.97
2023-03-06T07:14:22.069Z,5.08
2023-03-06T07:17:31.944Z,5.08
2023-03-06T07:20:36.090Z,5.15
2023-03-06T07:23:43.111Z,5.17
2023-03-06T07:26:47.827Z,5.20
2023-03-06T07:29:50.521Z,5.23
2023-03-06T07:32:55.299Z,5.33
2023-03-06T07:35:59.502Z,5.26
2023-03-06T07:39:02.528Z,5.15
2023-03-06T07:42:12.428Z,5.13
2023-03-06T07:45:15.149Z,5.16
2023-03-06T07:48:17.842Z,5.22
2023-03-06T07:51:25.406Z,5.22
2023-03-06T07:54:30.642Z,5.21
2023-03-06T07:57:35.658Z,5.21
2023-03-06T08:00:38.334Z,5.26
2023-03-06T08:03:41.063Z,5.36
2023-03-06T08:06:45.158Z,5.51
2023-03-06T08:09:50.002Z,5.67
2023-03-06T08:12:59.880Z,5.83
2023-03-06T08:16:02.808Z,5.86
2023-03-06T08:19:11.761Z,6.05
2023-03-06T08:22:15.898Z,6.34
2023-03-06T08:25:26.116Z,6.68
2023-03-06T08:28:29.455Z,7.00
2023-03-06T08:31:34.334Z,7.18
2023-03-06T08:34:39.852Z,7.27
2023-03-06T08:37:43.923Z,7.33
2023-03-06T08:40:46.610Z,7.31
2023-03-06T08:43:49.975Z,7.30
2023-03-06T08:46:52.647Z,7.39
2023-03-06T08:49:55.340Z,7.57
2023-03-06T08:52:59.640Z,7.61
2023-03-06T08:56:03.364Z,7.63
2023-03-06T08:59:09.017Z,7.58
2023-03-06T09:02:15.276Z,7.46
2023-03-06T09:05:18.204Z,7.27
2023-03-06T09:08:25.226Z,7.20
2023-03-06T09:11:28.862Z,7.11
2023-03-06T09:14:32.283Z,7.04
2023-03-06T09:17:35.061Z,6.89
2023-03-06T09:20:38.033Z,6.85
2023-03-06T09:23:42.048Z,6.85
2023-03-06T09:26:47.018Z,6.90
2023-03-06T09:29:50.573Z,6.95
2023-03-06T09:32:58.539Z,7.06
2023-03-06T09:36:01.194Z,7.15
2023-03-06T09:39:05.210Z,7.20
2023-03-06T09:42:15.146Z,7.32
2023-03-06T09:45:25.577Z,7.40
2023-03-06T09:48:49.048Z,7.49
2023-03-06T09:52:03.390Z,7.53
2023-03-06T09:55:15.806Z,7.54
2023-03-06T09:58:22.904Z,7.58
2023-03-06T10:01:29.956Z,7.55
2023-03-06T10:04:37.903Z,7.47
2023-03-06T10:07:50.537Z,7.44
2023-03-06T10:11:01.897Z,7.36
2023-03-06T10:14:19.516Z,7.27
2023-03-06T10:17:26.128Z,7.33
2023-03-06T10:20:30.144Z,7.52
2023-03-06T10:23:47.819Z,7.74
2023-03-06T10:26:57.428Z,7.95
2023-03-06T10:30:18.297Z,8.09
2023-03-06T10:33:32.464Z,8.25
2023-03-06T10:36:35.521Z,8.46
2023-03-06T10:39:38.508Z,8.62
2023-03-06T10:42:42.509Z,8.74
2023-03-06T10:45:49.760Z,8.86
2023-03-06T10:48:59.383Z,8.96
2023-03-06T10:52:05.403Z,9.02
2023-03-06T10:55:25.657Z,9.22
2023-03-06T10:58:31.291Z,9.33
2023-03-06T11:01:34.186Z,9.48
2023-03-06T11:04:38.438Z,9.55
2023-03-06T11:07:55.103Z,9.44
2023-03-06T11:11:00.565Z,9.23
2023-03-06T11:14:16.007Z,8.98
2023-03-06T11:17:29.287Z,8.83
2023-03-06T11:20:50.140Z,8.70
2023-03-06T11:23:55.601Z,8.73
2023-03-06T11:27:03.258Z,8.86
2023-03-06T11:30:21.507Z,9.00
2023-03-06T11:33:32.056Z,9.15
2023-03-06T11:36:40.807Z,9.28
2023-03-06T11:39:49.450Z,9.43
2023-03-06T11:43:00.172Z,9.50
2023-03-06T11:46:12.321Z,9.57
2023-03-06T11:49:23.349Z,9.69
2023-03-06T11:52:43.092Z,9.77
2023-03-06T11:56:05.854Z,9.74
2023-03-06T11:59:25.461Z,9.72
2023-03-06T12:02:43.853Z,9.62
2023-03-06T12:05:49.159Z,9.55
2023-03-06T12:09:04.847Z,9.54
2023-03-06T12:12:22.843Z,9.49
2023-03-06T12:15:48.506Z,9.71
2023-03-06T12:19:03.387Z,9.80
2023-03-06T12:22:28.638Z,9.96
2023-03-06T12:25:45.288Z,10.11
2023-03-06T12:29:04.073Z,10.01
2023-03-06T12:32:21.871Z,10.15
2023-03-06T12:35:51.605Z,10.28
2023-03-06T12:39:07.810Z,10.26
2023-03-06T12:42:35.664Z,10.24
2023-03-06T12:45:39.311Z,10.15
2023-03-06T12:48:46.508Z,10.09
2023-03-06T12:51:53.934Z,9.88
2023-03-06T12:54:59.660Z,9.70
2023-03-06T12:58:37.730Z,9.61
2023-03-06T13:01:55.218Z,9.66
2023-03-06T13:05:17.049Z,9.55
2023-03-06T13:08:56.838Z,9.49
2023-03-06T13:12:31.790Z,9.47
2023-03-06T13:15:45.868Z,9.45
2023-03-06T13:18:53.279Z,9.37
2023-03-06T13:22:20.671Z,9.34
2023-03-06T13:25:48.825Z,9.37
2023-03-06T13:28:54.357Z,9.38
2023-03-06T13:32:15.719Z,9.45
2023-03-06T13:35:52.786Z,9.54
2023-03-06T13:39:04.251Z,9.82
2023-03-06T13:42:26.897Z,10.12
2023-03-06T13:45:35.513Z,10.43
2023-03-06T13:48:46.283Z,10.67
2023-03-06T13:52:06.156Z,10.69
2023-03-06T13:55:23.500Z,10.78
2023-03-06T13:58:42.613Z,10.88
2023-03-06T14:01:57.619Z,10.88
2023-03-06T14:05:02.171Z,10.96
2023-03-06T14:08:11.184Z,10.97
2023-03-06T14:11:21.118Z,10.90
2023-03-06T14:14:33.096Z,10.61
2023-03-06T14:17:39.205Z,10.44
2023-03-06T14:20:44.259Z,10.22
2023-03-06T14:23:47.388Z,10.07
2023-03-06T14:26:53.830Z,9.97
2023-03-06T14:30:09.438Z,9.82
2023-03-06T14:33:12.721Z,9.65
2023-03-06T14:36:17.875Z,9.46
2023-03-06T14:39:24.327Z,9.18
2023-03-06T14:42:29.194Z,9.15
2023-03-06T14:45:35.492Z,9.11
2023-03-06T14:48:41.285Z,9.20
2023-03-06T14:51:46.718Z,9.26
2023-03-06T14:54:50.581Z,9.27
2023-03-06T14:57:58.176Z,9.26
2023-03-06T15:01:04.437Z,9.24
2023-03-06T15:04:17.212Z,9.27
2023-03-06T15:07:24.453Z,9.24
2023-03-06T15:10:30.228Z,9.17
2023-03-06T15:13:34.591Z,9.12
2023-03-06T15:16:38.777Z,9.12
2023-03-06T15:19:41.614Z,9.13
2023-03-06T15:22:44.732Z,9.11
2023-03-06T15:25:53.579Z,9.07
2023-03-06T15:29:08.182Z,9.05
2023-03-06T15:32:35.772Z,9.05
2023-03-06T15:35:39.237Z,9.05
2023-03-06T15:38:44.038Z,9.00
2023-03-06T15:41:46.626Z,8.96
2023-03-06T15:44:51.636Z,8.90
2023-03-06T15:47:58.800Z,8.88
2023-03-06T15:51:02.253Z,8.75
2023-03-06T15:54:12.391Z,8.68
2023-03-06T15:57:22.162Z,8.61
2023-03-06T16:00:28.612Z,8.54
2023-03-06T16:03:33.429Z,8.49
2023-03-06T16:06:36.051Z,8.43
2023-03-06T16:09:39.140Z,8.34
2023-03-06T16:12:44.616Z,8.29
2023-03-06T16:15:50.411Z,8.08
2023-03-06T16:18:54.424Z,8.12
2023-03-06T16:21:58.178Z,8.00
2023-03-06T16:25:00.778Z,7.92
2023-03-06T16:28:53.480Z,7.83
2023-03-06T16:31:57.499Z,7.76
2023-03-06T16:35:02.351Z,7.66
2023-03-06T16:38:05.066Z,7.60
2023-03-06T16:41:07.810Z,7.53
2023-03-06T16:44:11.149Z,7.46
2023-03-06T16:47:13.799Z,7.42
2023-03-06T16:50:24.408Z,7.34
2023-03-06T16:53:27.286Z,7.28
2023-03-06T16:56:29.981Z,7.23
2023-03-06T16:59:32.770Z,7.18
2023-03-06T17:02:35.448Z,7.13
2023-03-06T17:05:39.724Z,7.08
2023-03-06T17:08:42.457Z,7.08
2023-03-06T17:11:46.802Z,6.99
2023-03-06T17:14:49.544Z,6.99
2023-03-06T17:17:53.234Z,6.89
2023-03-06T17:20:58.299Z,6.91
2023-03-06T17:24:02.027Z,6.88
2023-03-06T17:27:04.737Z,6.87
2023-03-06T17:30:08.434Z,6.87
2023-03-06T17:33:11.142Z,6.83
2023-03-06T17:36:16.261Z,6.80
2023-03-06T17:39:19.778Z,6.79
2023-03-06T17:42:22.491Z,6.79
2023-03-06T17:45:25.402Z,6.74
2023-03-06T17:48:28.099Z,6.73
2023-03-06T17:51:32.095Z,6.68
2023-03-06T17:54:35.881Z,6.67
2023-03-06T17:57:38.605Z,6.70
2023-03-06T18:00:41.624Z,6.65
2023-03-06T18:03:45.993Z,6.61
2023-03-06T18:06:49.989Z,6.58
2023-03-06T18:09:52.687Z,6.58
2023-03-06T18:12:56.493Z,6.57
2023-03-06T18:15:59.883Z,6.52
2023-03-06T18:19:03.249Z,6.50
2023-03-06T18:22:07.293Z,6.47
2023-03-06T18:25:10.675Z,6.48
2023-03-06T18:28:13.537Z,6.34
2023-03-06T18:31:17.514Z,6.43
2023-03-06T18:34:20.248Z,6.33
2023-03-06T18:37:24.614Z,6.26
2023-03-06T18:40:27.369Z,6.36
2023-03-06T18:43:30.094Z,6.39
2023-03-06T18:46:34.604Z,6.34
2023-03-06T18:49:39.853Z,6.31
2023-03-06T18:52:44.350Z,6.29
2023-03-06T18:55:51.971Z,6.28
2023-03-06T18:58:54.695Z,6.26
2023-03-06T19:01:58.591Z,6.26
2023-03-06T19:05:02.436Z,6.22
2023-03-06T19:08:06.661Z,6.20
2023-03-06T19:11:11.348Z,6.13
2023-03-06T19:14:14.293Z,6.10
2023-03-06T19:17:16.928Z,6.07
2023-03-06T19:20:20.141Z,6.04
2023-03-06T19:23:24.325Z,6.03
2023-03-06T19:26:28.073Z,6.03
2023-03-06T19:29:32.482Z,6.02
2023-03-06T19:32:35.346Z,5.98
2023-03-06T19:35:38.136Z,5.98
2023-03-06T19:38:42.988Z,5.88
2023-03-06T19:41:47.184Z,5.93
2023-03-06T19:44:49.911Z,5.93
2023-03-06T19:47:55.484Z,5.93
2023-03-06T19:50:58.163Z,5.94
2023-03-06T19:54:02.223Z,5.87
2023-03-06T19:57:05.372Z,5.86
2023-03-06T20:00:09.523Z,5.79
2023-03-06T20:03:12.238Z,5.76
2023-03-06T20:06:17.560Z,5.65
2023-03-06T20:09:21.912Z,5.80
2023-03-06T20:12:24.632Z,5.78
2023-03-06T20:15:28.114Z,5.73
2023-03-06T20:18:30.883Z,5.76
2023-03-06T20:21:35.497Z,5.75
2023-03-06T20:24:39.609Z,5.76
2023-03-06T20:27:42.306Z,5.76
2023-03-06T20:30:45.333Z,5.65
2023-03-06T20:33:50.177Z,5.69
2023-03-06T20:36:53.072Z,5.73
2023-03-06T20:39:57.508Z,5.69
2023-03-06T20:43:00.201Z,5.73
2023-03-06T20:46:06.015Z,5.70
2023-03-06T20:49:09.264Z,5.70
2023-03-06T20:52:11.978Z,5.69
2023-03-06T20:55:16.306Z,5.69
2023-03-06T20:58:19.037Z,5.67
2023-03-06T21:01:23.663Z,5.69
2023-03-06T21:04:26.455Z,5.66
2023-03-06T21:07:29.201Z,5.66
2023-03-06T21:10:33.232Z,5.64
2023-03-06T21:13:36.263Z,5.69
2023-03-06T21:16:38.994Z,5.70
2023-03-06T21:19:42.486Z,5.68
2023-03-06T21:22:45.673Z,5.70
2023-03-06T21:25:51.289Z,5.71
2023-03-06T21:28:54.536Z,5.72
2023-03-06T21:31:57.265Z,5.73
2023-03-06T21:35:00.345Z,5.73
2023-03-06T21:38:03.826Z,5.71
2023-03-06T21:41:13.364Z,5.70
2023-03-06T21:44:16.068Z,5.68
2023-03-06T21:47:18.784Z,5.69
2023-03-06T21:50:22.092Z,5.68
2023-03-06T21:53:25.074Z,5.73
2023-03-06T21:56:29.858Z,5.64
2023-03-06T21:59:32.543Z,5.71
2023-03-06T22:02:35.265Z,5.74
2023-03-06T22:05:38.538Z,5.74
2023-03-06T22:08:41.743Z,5.75
2023-03-06T22:11:46.395Z,5.73
2023-03-06T22:14:49.555Z,5.79
2023-03-06T22:17:53.708Z,5.76
2023-03-06T22:20:56.540Z,5.70
2023-03-06T22:23:59.883Z,5.67
2023-03-06T22:27:04.192Z,5.62
2023-03-06T22:30:08.229Z,5.58
2023-03-06T22:33:10.961Z,5.59
2023-03-06T22:36:16.435Z,5.58
2023-03-06T22:39:19.579Z,5.54
2023-03-06T22:42:23.657Z,5.61
2023-03-06T22:45:26.348Z,5.63
2023-03-06T22:48:29.322Z,5.68
2023-03-06T22:51:32.032Z,5.69
2023-03-06T22:54:34.825Z,5.71
2023-03-06T22:57:38.864Z,5.72
2023-03-06T23:00:41.640Z,5.75
2023-03-06T23:03:46.028Z,5.76
2023-03-06T23:06:48.714Z,5.78
2023-03-06T23:09:52.027Z,5.81
2023-03-06T23:12:56.367Z,5.83
2023-03-06T23:16:02.833Z,5.82
2023-03-06T23:19:05.975Z,5.83
2023-03-06T23:22:10.072Z,5.82
2023-03-06T23:25:12.867Z,5.78
2023-03-06T23:28:17.426Z,5.72
2023-03-06T23:31:22.584Z,5.69
2023-03-06T23:34:27.213Z,5.62
2023-03-06T23:37:29.909Z,5.53
2023-03-06T23:40:35.626Z,5.47
2023-03-06T23:43:39.994Z,5.42
2023-03-06T23:46:42.690Z,5.38
2023-03-06T23:49:45.403Z,5.38
2023-03-06T23:52:48.061Z,5.37
2023-03-06T23:55:51.472Z,5.36
2023-03-06T23:58:55.612Z,5.40
